sensor_id;sensor_type;location;lat;lon;timestamp;temperature;humidity
11423;DHT22;5768;51.476;7.210;2024-03-23T00:57:26;9.10;19.50
11423;DHT22;5768;51.476;7.210;2024-03-23T01:02:30;9.10;19.80
11423;DHT22;5768;51.476;7.210;2024-03-23T01:07:33;9.20;19.50
11423;DHT22;5768;51.476;7.210;2024-03-23T01:12:35;8.90;19.50
11423;DHT22;5768;51.476;7.210;2024-03-23T01:17:38;8.50;19.90
11423;DHT22;5768;51.476;7.210;2024-03-23T01:22:41;8.40;21.00
11423;DHT22;5768;51.476;7.210;2024-03-23T01:27:43;8.40;21.10
11423;DHT22;5768;51.476;7.210;2024-03-23T01:32:46;8.40;20.50
11423;DHT22;5768;51.476;7.210;2024-03-23T01:37:49;8.50;20.60
11423;DHT22;5768;51.476;7.210;2024-03-23T01:42:57;8.50;20.50
11423;DHT22;5768;51.476;7.210;2024-03-23T01:48:01;8.50;20.50
11423;DHT22;5768;51.476;7.210;2024-03-23T01:53:05;8.40;20.40
11423;DHT22;5768;51.476;7.210;2024-03-23T01:58:07;8.00;20.20
11423;DHT22;5768;51.476;7.210;2024-03-23T02:03:24;8.10;20.00
11423;DHT22;5768;51.476;7.210;2024-03-23T02:08:27;8.00;19.50
11423;DHT22;5768;51.476;7.210;2024-03-23T02:13:29;8.00;20.00
11423;DHT22;5768;51.476;7.210;2024-03-23T02:18:33;8.30;18.60
11423;DHT22;5768;51.476;7.210;2024-03-23T02:23:37;8.60;18.90
11423;DHT22;5768;51.476;7.210;2024-03-23T02:28:39;8.40;18.20
11423;DHT22;5768;51.476;7.210;2024-03-23T02:33:41;8.70;18.30
11423;DHT22;5768;51.476;7.210;2024-03-23T02:38:45;8.90;17.90
11423;DHT22;5768;51.476;7.210;2024-03-23T02:43:48;8.80;18.50
11423;DHT22;5768;51.476;7.210;2024-03-23T02:48:51;8.70;18.60
11423;DHT22;5768;51.476;7.210;2024-03-23T02:53:54;8.50;18.20
11423;DHT22;5768;51.476;7.210;2024-03-23T02:58:57;8.60;18.80
11423;DHT22;5768;51.476;7.210;2024-03-23T03:04:00;8.50;18.20
11423;DHT22;5768;51.476;7.210;2024-03-23T03:09:04;8.30;18.60
11423;DHT22;5768;51.476;7.210;2024-03-23T03:14:06;8.40;19.30
11423;DHT22;5768;51.476;7.210;2024-03-23T03:19:09;8.10;18.50
11423;DHT22;5768;51.476;7.210;2024-03-23T03:24:12;8.00;18.90
11423;DHT22;5768;51.476;7.210;2024-03-23T03:29:14;8.10;19.20
11423;DHT22;5768;51.476;7.210;2024-03-23T03:34:16;8.00;19.20
11423;DHT22;5768;51.476;7.210;2024-03-23T03:39:20;8.40;18.70
11423;DHT22;5768;51.476;7.210;2024-03-23T03:44:23;8.60;18.90
11423;DHT22;5768;51.476;7.210;2024-03-23T03:49:25;8.60;18.00
11423;DHT22;5768;51.476;7.210;2024-03-23T03:54:29;8.60;18.30
11423;DHT22;5768;51.476;7.210;2024-03-23T03:59:31;7.70;18.40
11423;DHT22;5768;51.476;7.210;2024-03-23T04:04:34;8.10;18.70
11423;DHT22;5768;51.476;7.210;2024-03-23T04:09:37;8.10;18.50
11423;DHT22;5768;51.476;7.210;2024-03-23T04:14:39;8.00;19.10
11423;DHT22;5768;51.476;7.210;2024-03-23T04:19:42;8.00;18.60
11423;DHT22;5768;51.476;7.210;2024-03-23T04:24:47;7.80;19.10
11423;DHT22;5768;51.476;7.210;2024-03-23T04:29:49;7.40;20.00
11423;DHT22;5768;51.476;7.210;2024-03-23T04:34:52;7.30;19.90
11423;DHT22;5768;51.476;7.210;2024-03-23T04:39:56;7.20;20.30
11423;DHT22;5768;51.476;7.210;2024-03-23T04:44:58;7.30;20.20
11423;DHT22;5768;51.476;7.210;2024-03-23T04:50:01;7.30;20.00
11423;DHT22;5768;51.476;7.210;2024-03-23T04:55:05;7.10;21.00
11423;DHT22;5768;51.476;7.210;2024-03-23T05:00:09;7.20;20.80
11423;DHT22;5768;51.476;7.210;2024-03-23T05:05:17;7.20;20.50
11423;DHT22;5768;51.476;7.210;2024-03-23T05:10:21;7.10;20.20
11423;DHT22;5768;51.476;7.210;2024-03-23T05:15:23;6.90;20.40
11423;DHT22;5768;51.476;7.210;2024-03-23T05:20:26;7.00;20.10
11423;DHT22;5768;51.476;7.210;2024-03-23T05:25:30;7.00;20.20
11423;DHT22;5768;51.476;7.210;2024-03-23T05:30:32;6.80;21.00
11423;DHT22;5768;51.476;7.210;2024-03-23T05:35:34;7.10;21.00
11423;DHT22;5768;51.476;7.210;2024-03-23T05:40:38;7.00;21.20
11423;DHT22;5768;51.476;7.210;2024-03-23T05:45:40;7.00;22.10
11423;DHT22;5768;51.476;7.210;2024-03-23T05:50:43;7.00;22.70
11423;DHT22;5768;51.476;7.210;2024-03-23T05:55:46;6.80;22.70
11423;DHT22;5768;51.476;7.210;2024-03-23T06:00:49;7.10;23.20
11423;DHT22;5768;51.476;7.210;2024-03-23T06:05:59;7.10;22.90
11423;DHT22;5768;51.476;7.210;2024-03-23T06:11:03;7.30;22.70
11423;DHT22;5768;51.476;7.210;2024-03-23T06:16:06;7.40;22.00
11423;DHT22;5768;51.476;7.210;2024-03-23T06:21:13;7.50;21.80
11423;DHT22;5768;51.476;7.210;2024-03-23T06:26:17;7.50;21.70
11423;DHT22;5768;51.476;7.210;2024-03-23T06:31:19;7.40;22.30
11423;DHT22;5768;51.476;7.210;2024-03-23T06:36:22;7.30;22.40
11423;DHT22;5768;51.476;7.210;2024-03-23T06:41:26;7.50;22.90
11423;DHT22;5768;51.476;7.210;2024-03-23T06:46:28;7.20;22.90
11423;DHT22;5768;51.476;7.210;2024-03-23T06:51:30;7.30;22.10
11423;DHT22;5768;51.476;7.210;2024-03-23T06:56:34;7.30;21.90
11423;DHT22;5768;51.476;7.210;2024-03-23T07:01:36;7.20;22.30
11423;DHT22;5768;51.476;7.210;2024-03-23T07:06:42;7.40;22.00
11423;DHT22;5768;51.476;7.210;2024-03-23T07:11:46;7.40;21.60
11423;DHT22;5768;51.476;7.210;2024-03-23T07:16:48;7.70;21.30
11423;DHT22;5768;51.476;7.210;2024-03-23T07:21:51;7.70;20.90
11423;DHT22;5768;51.476;7.210;2024-03-23T07:26:55;7.40;21.80
11423;DHT22;5768;51.476;7.210;2024-03-23T07:31:58;7.70;21.00
11423;DHT22;5768;51.476;7.210;2024-03-23T07:37:00;7.60;21.30
11423;DHT22;5768;51.476;7.210;2024-03-23T07:42:04;7.90;21.30
11423;DHT22;5768;51.476;7.210;2024-03-23T07:47:07;8.10;20.50
11423;DHT22;5768;51.476;7.210;2024-03-23T07:52:09;7.90;20.50
11423;DHT22;5768;51.476;7.210;2024-03-23T07:57:13;8.30;20.10
11423;DHT22;5768;51.476;7.210;2024-03-23T08:02:15;8.40;20.20
11423;DHT22;5768;51.476;7.210;2024-03-23T08:07:18;8.60;19.40
11423;DHT22;5768;51.476;7.210;2024-03-23T08:12:21;9.00;19.10
11423;DHT22;5768;51.476;7.210;2024-03-23T08:17:23;8.90;19.10
11423;DHT22;5768;51.476;7.210;2024-03-23T08:22:25;9.10;18.90
11423;DHT22;5768;51.476;7.210;2024-03-23T08:27:29;8.90;18.80
11423;DHT22;5768;51.476;7.210;2024-03-23T08:32:31;9.30;18.70
11423;DHT22;5768;51.476;7.210;2024-03-23T08:37:34;9.20;17.80
11423;DHT22;5768;51.476;7.210;2024-03-23T08:42:38;9.20;17.30
11423;DHT22;5768;51.476;7.210;2024-03-23T08:47:40;9.30;17.40
11423;DHT22;5768;51.476;7.210;2024-03-23T08:52:43;9.20;17.10
11423;DHT22;5768;51.476;7.210;2024-03-23T08:57:47;9.40;16.70
11423;DHT22;5768;51.476;7.210;2024-03-23T09:02:49;9.80;16.00
11423;DHT22;5768;51.476;7.210;2024-03-23T09:07:52;10.00;16.70
11423;DHT22;5768;51.476;7.210;2024-03-23T09:12:55;9.30;16.50
11423;DHT22;5768;51.476;7.210;2024-03-23T09:17:59;9.40;16.60
11423;DHT22;5768;51.476;7.210;2024-03-23T09:23:01;9.10;16.40
11423;DHT22;5768;51.476;7.210;2024-03-23T09:28:05;8.80;16.20
11423;DHT22;5768;51.476;7.210;2024-03-23T09:33:09;8.50;16.40
11423;DHT22;5768;51.476;7.210;2024-03-23T09:38:12;8.70;16.20
11423;DHT22;5768;51.476;7.210;2024-03-23T09:43:15;9.20;16.30
11423;DHT22;5768;51.476;7.210;2024-03-23T09:48:18;8.60;16.30
11423;DHT22;5768;51.476;7.210;2024-03-23T09:53:20;9.10;16.00
11423;DHT22;5768;51.476;7.210;2024-03-23T09:58:24;9.80;15.70
11423;DHT22;5768;51.476;7.210;2024-03-23T10:03:27;10.30;15.40
11423;DHT22;5768;51.476;7.210;2024-03-23T10:08:29;10.20;15.00
11423;DHT22;5768;51.476;7.210;2024-03-23T10:13:35;10.00;14.80
11423;DHT22;5768;51.476;7.210;2024-03-23T10:18:38;10.60;14.70
11423;DHT22;5768;51.476;7.210;2024-03-23T10:23:42;10.00;14.50
11423;DHT22;5768;51.476;7.210;2024-03-23T10:28:54;10.10;14.60
11423;DHT22;5768;51.476;7.210;2024-03-23T10:33:59;10.50;14.30
11423;DHT22;5768;51.476;7.210;2024-03-23T10:39:01;11.00;14.20
11423;DHT22;5768;51.476;7.210;2024-03-23T10:44:06;10.80;99.90
11423;DHT22;5768;51.476;7.210;2024-03-23T10:49:08;11.10;99.90
11423;DHT22;5768;51.476;7.210;2024-03-23T10:54:11;11.30;1.40
11423;DHT22;5768;51.476;7.210;2024-03-23T10:59:16;10.70;1.40
11423;DHT22;5768;51.476;7.210;2024-03-23T11:04:30;11.10;1.40
11423;DHT22;5768;51.476;7.210;2024-03-23T11:09:39;8.80;1.40
11423;DHT22;5768;51.476;7.210;2024-03-23T11:14:47;6.60;1.40
11423;DHT22;5768;51.476;7.210;2024-03-23T11:19:54;6.20;1.40
11423;DHT22;5768;51.476;7.210;2024-03-23T11:24:57;6.70;1.40
11423;DHT22;5768;51.476;7.210;2024-03-23T11:30:14;6.90;1.40
11423;DHT22;5768;51.476;7.210;2024-03-23T11:35:25;7.00;1.40
11423;DHT22;5768;51.476;7.210;2024-03-23T11:40:28;7.00;1.40
11423;DHT22;5768;51.476;7.210;2024-03-23T11:45:36;7.70;1.40
11423;DHT22;5768;51.476;7.210;2024-03-23T11:50:42;7.90;1.40
11423;DHT22;5768;51.476;7.210;2024-03-23T11:55:48;8.20;1.40
11423;DHT22;5768;51.476;7.210;2024-03-23T12:00:56;8.50;1.40
11423;DHT22;5768;51.476;7.210;2024-03-23T12:06:00;8.90;1.40
11423;DHT22;5768;51.476;7.210;2024-03-23T12:11:08;9.40;1.40
11423;DHT22;5768;51.476;7.210;2024-03-23T12:16:14;9.90;1.40
11423;DHT22;5768;51.476;7.210;2024-03-23T12:21:18;10.70;1.40
11423;DHT22;5768;51.476;7.210;2024-03-23T12:26:21;10.60;1.40
11423;DHT22;5768;51.476;7.210;2024-03-23T12:31:25;9.80;1.40
11423;DHT22;5768;51.476;7.210;2024-03-23T12:36:27;9.50;1.40
11423;DHT22;5768;51.476;7.210;2024-03-23T12:41:29;9.50;1.40
11423;DHT22;5768;51.476;7.210;2024-03-23T12:46:33;9.10;1.40
11423;DHT22;5768;51.476;7.210;2024-03-23T12:51:35;10.00;1.40
11423;DHT22;5768;51.476;7.210;2024-03-23T12:56:38;10.50;1.40
11423;DHT22;5768;51.476;7.210;2024-03-23T13:01:42;11.10;1.40
11423;DHT22;5768;51.476;7.210;2024-03-23T13:06:45;11.70;1.40
11423;DHT22;5768;51.476;7.210;2024-03-23T13:11:47;11.30;1.40
11423;DHT22;5768;51.476;7.210;2024-03-23T13:16:50;10.20;1.40
11423;DHT22;5768;51.476;7.210;2024-03-23T13:21:53;9.80;1.40
11423;DHT22;5768;51.476;7.210;2024-03-23T13:26:57;7.90;1.40
11423;DHT22;5768;51.476;7.210;2024-03-23T13:32:00;6.60;1.40
11423;DHT22;5768;51.476;7.210;2024-03-23T13:37:03;7.50;1.40
11423;DHT22;5768;51.476;7.210;2024-03-23T13:42:08;7.70;1.40
11423;DHT22;5768;51.476;7.210;2024-03-23T13:47:11;7.90;1.40
11423;DHT22;5768;51.476;7.210;2024-03-23T13:52:14;7.80;1.40
11423;DHT22;5768;51.476;7.210;2024-03-23T13:57:16;8.20;1.40
11423;DHT22;5768;51.476;7.210;2024-03-23T14:02:23;12.30;1.40
11423;DHT22;5768;51.476;7.210;2024-03-23T14:07:25;12.80;1.40
11423;DHT22;5768;51.476;7.210;2024-03-23T14:12:27;11.40;1.40
11423;DHT22;5768;51.476;7.210;2024-03-23T14:17:31;10.30;1.40
11423;DHT22;5768;51.476;7.210;2024-03-23T14:22:33;12.20;1.40
11423;DHT22;5768;51.476;7.210;2024-03-23T14:27:35;13.90;1.40
11423;DHT22;5768;51.476;7.210;2024-03-23T14:32:39;14.80;1.40
11423;DHT22;5768;51.476;7.210;2024-03-23T14:37:42;14.60;1.40
11423;DHT22;5768;51.476;7.210;2024-03-23T14:42:44;14.70;1.40
11423;DHT22;5768;51.476;7.210;2024-03-23T14:47:48;12.20;1.40
11423;DHT22;5768;51.476;7.210;2024-03-23T14:52:50;14.50;1.40
11423;DHT22;5768;51.476;7.210;2024-03-23T14:57:53;14.30;1.40
11423;DHT22;5768;51.476;7.210;2024-03-23T15:02:56;14.40;1.40
11423;DHT22;5768;51.476;7.210;2024-03-23T15:07:58;14.20;1.40
11423;DHT22;5768;51.476;7.210;2024-03-23T15:13:00;11.90;1.40
11423;DHT22;5768;51.476;7.210;2024-03-23T15:18:04;11.70;1.40
11423;DHT22;5768;51.476;7.210;2024-03-23T15:23:07;11.50;1.40
11423;DHT22;5768;51.476;7.210;2024-03-23T15:28:09;11.80;1.40
11423;DHT22;5768;51.476;7.210;2024-03-23T15:33:13;11.30;1.40
11423;DHT22;5768;51.476;7.210;2024-03-23T15:38:15;13.70;1.40
11423;DHT22;5768;51.476;7.210;2024-03-23T15:43:19;14.90;1.40
11423;DHT22;5768;51.476;7.210;2024-03-23T15:48:22;13.10;1.40
11423;DHT22;5768;51.476;7.210;2024-03-23T15:53:27;15.10;1.40
11423;DHT22;5768;51.476;7.210;2024-03-23T15:58:30;13.00;1.40
11423;DHT22;5768;51.476;7.210;2024-03-23T16:03:37;12.40;1.40
11423;DHT22;5768;51.476;7.210;2024-03-23T16:08:39;14.30;1.40
11423;DHT22;5768;51.476;7.210;2024-03-23T16:13:42;14.10;1.40
11423;DHT22;5768;51.476;7.210;2024-03-23T16:18:45;16.40;1.40
11423;DHT22;5768;51.476;7.210;2024-03-23T16:23:47;16.60;1.40
11423;DHT22;5768;51.476;7.210;2024-03-23T16:28:50;14.00;1.40
11423;DHT22;5768;51.476;7.210;2024-03-23T16:33:54;12.40;1.40
11423;DHT22;5768;51.476;7.210;2024-03-23T16:38:56;14.90;99.90
11423;DHT22;5768;51.476;7.210;2024-03-23T16:43:58;16.20;12.50
11423;DHT22;5768;51.476;7.210;2024-03-23T16:49:02;13.70;13.00
11423;DHT22;5768;51.476;7.210;2024-03-23T16:54:04;14.10;14.00
11423;DHT22;5768;51.476;7.210;2024-03-23T16:59:07;12.80;13.50
11423;DHT22;5768;51.476;7.210;2024-03-23T17:04:11;11.30;13.50
11423;DHT22;5768;51.476;7.210;2024-03-23T17:09:13;10.00;13.50
11423;DHT22;5768;51.476;7.210;2024-03-23T17:14:16;9.30;13.60
11423;DHT22;5768;51.476;7.210;2024-03-23T17:19:20;8.80;13.40
11423;DHT22;5768;51.476;7.210;2024-03-23T17:24:23;8.80;13.10
11423;DHT22;5768;51.476;7.210;2024-03-23T17:29:25;8.60;13.10
11423;DHT22;5768;51.476;7.210;2024-03-23T17:34:29;7.60;14.40
11423;DHT22;5768;51.476;7.210;2024-03-23T17:39:31;6.80;15.10
11423;DHT22;5768;51.476;7.210;2024-03-23T17:44:33;6.80;15.40
11423;DHT22;5768;51.476;7.210;2024-03-23T17:49:36;6.80;15.60
11423;DHT22;5768;51.476;7.210;2024-03-23T17:54:39;7.20;15.40
11423;DHT22;5768;51.476;7.210;2024-03-23T17:59:41;7.30;15.20
11423;DHT22;5768;51.476;7.210;2024-03-23T18:04:44;7.30;15.20
11423;DHT22;5768;51.476;7.210;2024-03-23T18:09:47;7.10;15.10
11423;DHT22;5768;51.476;7.210;2024-03-23T18:14:49;6.60;15.30
11423;DHT22;5768;51.476;7.210;2024-03-23T18:19:52;6.50;15.80
11423;DHT22;5768;51.476;7.210;2024-03-23T18:24:54;6.50;15.70
11423;DHT22;5768;51.476;7.210;2024-03-23T18:29:57;6.50;15.90
11423;DHT22;5768;51.476;7.210;2024-03-23T18:35:01;6.50;15.80
11423;DHT22;5768;51.476;7.210;2024-03-23T18:40:06;6.40;15.70
11423;DHT22;5768;51.476;7.210;2024-03-23T18:45:09;6.30;15.90
11423;DHT22;5768;51.476;7.210;2024-03-23T18:50:13;6.20;16.00
11423;DHT22;5768;51.476;7.210;2024-03-23T18:55:17;6.20;16.10
11423;DHT22;5768;51.476;7.210;2024-03-23T19:00:19;6.00;16.20
11423;DHT22;5768;51.476;7.210;2024-03-23T19:05:24;6.20;16.30
11423;DHT22;5768;51.476;7.210;2024-03-23T19:10:30;6.20;16.30
11423;DHT22;5768;51.476;7.210;2024-03-23T19:15:34;6.20;16.20
11423;DHT22;5768;51.476;7.210;2024-03-23T19:20:37;6.00;16.30
11423;DHT22;5768;51.476;7.210;2024-03-23T19:25:40;6.20;16.40
11423;DHT22;5768;51.476;7.210;2024-03-23T19:30:44;6.40;16.20
11423;DHT22;5768;51.476;7.210;2024-03-23T19:35:54;6.20;16.10
11423;DHT22;5768;51.476;7.210;2024-03-23T19:40:58;6.50;16.10
11423;DHT22;5768;51.476;7.210;2024-03-23T19:46:04;6.60;15.90
11423;DHT22;5768;51.476;7.210;2024-03-23T19:51:22;6.50;16.00
11423;DHT22;5768;51.476;7.210;2024-03-23T19:56:28;6.60;16.00
11423;DHT22;5768;51.476;7.210;2024-03-23T20:01:30;6.80;15.70
11423;DHT22;5768;51.476;7.210;2024-03-23T20:06:37;6.70;15.80
11423;DHT22;5768;51.476;7.210;2024-03-23T20:11:40;6.70;15.90
11423;DHT22;5768;51.476;7.210;2024-03-23T20:16:42;6.00;17.90
11423;DHT22;5768;51.476;7.210;2024-03-23T20:21:46;6.10;19.20
11423;DHT22;5768;51.476;7.210;2024-03-23T20:26:49;6.00;19.00
11423;DHT22;5768;51.476;7.210;2024-03-23T20:31:51;5.90;18.60
11423;DHT22;5768;51.476;7.210;2024-03-23T20:36:54;6.20;18.90
11423;DHT22;5768;51.476;7.210;2024-03-23T20:41:57;6.20;18.00
11423;DHT22;5768;51.476;7.210;2024-03-23T20:46:59;6.50;18.00
11423;DHT22;5768;51.476;7.210;2024-03-23T20:52:04;6.30;17.90
11423;DHT22;5768;51.476;7.210;2024-03-23T20:57:09;6.00;19.00
11423;DHT22;5768;51.476;7.210;2024-03-23T21:02:11;5.70;18.80
11423;DHT22;5768;51.476;7.210;2024-03-23T21:07:18;5.10;18.90
11423;DHT22;5768;51.476;7.210;2024-03-23T21:12:42;6.10;18.50
11423;DHT22;5768;51.476;7.210;2024-03-23T21:17:55;6.00;18.50
11423;DHT22;5768;51.476;7.210;2024-03-23T21:22:59;6.00;18.50
11423;DHT22;5768;51.476;7.210;2024-03-23T21:28:02;6.10;18.70
11423;DHT22;5768;51.476;7.210;2024-03-23T21:33:14;6.10;18.70
11423;DHT22;5768;51.476;7.210;2024-03-23T21:38:19;5.80;18.70
11423;DHT22;5768;51.476;7.210;2024-03-23T21:43:25;5.80;19.30
11423;DHT22;5768;51.476;7.210;2024-03-23T21:48:34;5.90;19.40
11423;DHT22;5768;51.476;7.210;2024-03-23T21:53:39;5.60;19.50
11423;DHT22;5768;51.476;7.210;2024-03-23T21:58:44;5.30;19.80
11423;DHT22;5768;51.476;7.210;2024-03-23T22:03:47;5.50;20.10
11423;DHT22;5768;51.476;7.210;2024-03-23T22:08:53;5.30;20.00
11423;DHT22;5768;51.476;7.210;2024-03-23T22:13:56;5.50;20.10
11423;DHT22;5768;51.476;7.210;2024-03-23T22:18:59;5.50;20.40
11423;DHT22;5768;51.476;7.210;2024-03-23T22:24:06;5.50;20.30
11423;DHT22;5768;51.476;7.210;2024-03-23T22:29:09;5.80;19.80
11423;DHT22;5768;51.476;7.210;2024-03-23T22:34:11;5.80;19.90
11423;DHT22;5768;51.476;7.210;2024-03-23T22:39:24;6.00;19.90
11423;DHT22;5768;51.476;7.210;2024-03-23T22:44:29;5.90;19.80
11423;DHT22;5768;51.476;7.210;2024-03-23T22:49:35;5.80;20.30
11423;DHT22;5768;51.476;7.210;2024-03-23T22:54:41;6.00;20.00
11423;DHT22;5768;51.476;7.210;2024-03-23T22:59:57;6.20;19.60
11423;DHT22;5768;51.476;7.210;2024-03-23T23:05:09;6.10;20.00
11423;DHT22;5768;51.476;7.210;2024-03-23T23:10:14;5.60;20.10
11423;DHT22;5768;51.476;7.210;2024-03-23T23:15:17;5.80;20.60
11423;DHT22;5768;51.476;7.210;2024-03-23T23:20:19;5.80;20.30
11423;DHT22;5768;51.476;7.210;2024-03-23T23:25:24;5.50;20.40
11423;DHT22;5768;51.476;7.210;2024-03-23T23:30:32;5.70;20.70
11423;DHT22;5768;51.476;7.210;2024-03-23T23:35:35;5.70;20.10
11423;DHT22;5768;51.476;7.210;2024-03-23T23:40:40;5.80;20.70
11423;DHT22;5768;51.476;7.210;2024-03-23T23:45:45;5.70;20.50
11423;DHT22;5768;51.476;7.210;2024-03-23T23:50:50;5.70;20.80
11423;DHT22;5768;51.476;7.210;2024-03-23T23:55:55;5.70;20.80
